createdAt,value
2017-09-26T00:02:25.271Z,39.30
2017-09-26T00:04:53.343Z,38.50
2017-09-26T00:07:21.411Z,38.00
2017-09-26T00:09:49.486Z,38.77
2017-09-26T00:12:17.534Z,39.27
2017-09-26T00:14:45.602Z,39.83
2017-09-26T00:17:13.691Z,42.93
2017-09-26T00:19:41.772Z,40.03
2017-09-26T00:22:09.854Z,36.67
2017-09-26T00:24:37.920Z,42.70
2017-09-26T00:27:06.018Z,40.70
2017-09-26T00:29:34.080Z,36.83
2017-09-26T00:32:02.165Z,38.23
2017-09-26T00:34:30.236Z,37.10
2017-09-26T00:36:58.299Z,38.20
2017-09-26T00:39:26.396Z,37.10
2017-09-26T00:41:55.215Z,37.90
2017-09-26T00:44:23.303Z,40.27
2017-09-26T00:46:51.382Z,41.00
2017-09-26T00:49:19.441Z,36.73
2017-09-26T00:51:47.551Z,38.60
2017-09-26T00:54:15.610Z,33.40
2017-09-26T00:56:43.684Z,38.63
2017-09-26T00:59:11.747Z,33.00
2017-09-26T01:01:39.824Z,35.20
2017-09-26T01:04:17.238Z,36.50
2017-09-26T01:06:48.671Z,41.27
2017-09-26T01:09:16.722Z,34.43
2017-09-26T01:11:44.789Z,35.43
2017-09-26T01:14:12.848Z,31.53
2017-09-26T01:16:40.933Z,39.17
2017-09-26T01:19:09.002Z,35.50
2017-09-26T01:21:37.097Z,40.77
2017-09-26T01:24:05.158Z,32.87
2017-09-26T01:26:33.608Z,35.27
2017-09-26T01:29:01.670Z,38.80
2017-09-26T01:31:29.743Z,34.17
2017-09-26T01:33:57.813Z,34.43
2017-09-26T01:36:25.883Z,36.23
2017-09-26T01:38:53.970Z,34.23
2017-09-26T01:41:22.059Z,29.60
2017-09-26T01:43:50.147Z,33.60
2017-09-26T01:46:18.214Z,29.70
2017-09-26T01:48:46.285Z,30.30
2017-09-26T01:51:15.619Z,30.70
2017-09-26T01:53:44.451Z,27.70
2017-09-26T01:56:13.039Z,27.43
2017-09-26T01:58:41.706Z,30.07
2017-09-26T02:01:09.775Z,29.43
2017-09-26T02:03:37.904Z,30.97
2017-09-26T02:06:06.745Z,28.57
2017-09-26T02:08:34.803Z,31.20
2017-09-26T02:11:02.875Z,29.43
2017-09-26T02:13:30.946Z,31.33
2017-09-26T02:15:59.020Z,32.13
2017-09-26T02:18:27.082Z,27.63
2017-09-26T02:20:55.151Z,31.23
2017-09-26T02:23:23.223Z,29.77
2017-09-26T02:25:51.302Z,26.47
2017-09-26T02:28:19.375Z,24.97
2017-09-26T02:30:47.467Z,24.13
2017-09-26T02:33:15.511Z,27.70
2017-09-26T02:35:43.583Z,28.43
2017-09-26T02:38:11.650Z,22.73
2017-09-26T02:40:39.759Z,23.30
2017-09-26T02:43:07.816Z,26.80
2017-09-26T02:45:35.883Z,24.37
2017-09-26T02:48:03.954Z,24.10
2017-09-26T02:50:32.017Z,23.93
2017-09-26T02:53:00.079Z,23.23
2017-09-26T02:55:28.151Z,24.83
2017-09-26T02:57:56.226Z,24.00
2017-09-26T03:00:24.280Z,23.47
2017-09-26T03:02:52.351Z,28.97
2017-09-26T03:05:20.435Z,22.87
2017-09-26T03:07:48.521Z,23.03
2017-09-26T03:10:16.578Z,23.03
2017-09-26T03:12:44.682Z,24.40
2017-09-26T03:15:12.790Z,24.30
2017-09-26T03:17:41.630Z,23.47
2017-09-26T03:20:09.713Z,23.83
2017-09-26T03:22:37.788Z,23.67
2017-09-26T03:25:05.866Z,26.60
2017-09-26T03:27:33.927Z,25.50
2017-09-26T03:30:02.004Z,24.13
2017-09-26T03:32:30.714Z,26.93
2017-09-26T03:34:59.530Z,27.17
2017-09-26T03:37:27.599Z,27.70
2017-09-26T03:39:55.675Z,26.23
2017-09-26T03:42:24.502Z,25.43
2017-09-26T03:44:52.678Z,25.30
2017-09-26T03:47:20.750Z,28.03
2017-09-26T03:49:48.838Z,27.63
2017-09-26T03:52:16.981Z,24.10
2017-09-26T03:54:45.015Z,30.30
2017-09-26T03:57:13.100Z,27.17
2017-09-26T03:59:41.170Z,24.80
2017-09-26T04:02:10.729Z,26.10
2017-09-26T04:04:38.818Z,28.77
2017-09-26T04:07:06.890Z,28.47
2017-09-26T04:09:34.987Z,24.87
2017-09-26T04:12:03.048Z,23.77
2017-09-26T04:14:31.139Z,27.57
2017-09-26T04:16:59.199Z,31.13
2017-09-26T04:19:28.777Z,24.30
2017-09-26T04:21:56.850Z,31.37
2017-09-26T04:24:24.914Z,26.03
2017-09-26T04:26:52.969Z,30.03
2017-09-26T04:29:21.047Z,27.10
2017-09-26T04:31:49.110Z,26.97
2017-09-26T04:34:17.175Z,27.37
2017-09-26T04:36:45.248Z,26.23
2017-09-26T04:39:13.315Z,23.53
2017-09-26T04:41:41.381Z,25.40
2017-09-26T04:44:10.218Z,25.13
2017-09-26T04:46:38.277Z,26.67
2017-09-26T04:49:06.359Z,26.37
2017-09-26T04:51:34.424Z,26.73
2017-09-26T04:54:02.510Z,25.93
2017-09-26T04:56:30.580Z,27.27
2017-09-26T04:58:58.631Z,22.70
2017-09-26T05:01:26.951Z,28.13
2017-09-26T05:03:54.991Z,20.53
2017-09-26T05:06:23.074Z,24.73
2017-09-26T05:08:51.147Z,27.37
2017-09-26T05:11:19.218Z,22.30
2017-09-26T05:13:47.290Z,22.80
2017-09-26T05:16:15.385Z,28.30
2017-09-26T05:18:43.462Z,28.53
2017-09-26T05:21:12.299Z,26.03
2017-09-26T05:23:40.375Z,27.43
2017-09-26T05:26:08.433Z,32.55
2017-09-26T05:28:36.507Z,36.30
2017-09-26T05:31:04.594Z,24.10
2017-09-26T05:33:32.671Z,30.50
2017-09-26T05:36:00.742Z,34.10
2017-09-26T05:38:28.841Z,24.90
2017-09-26T05:40:56.910Z,31.67
2017-09-26T05:43:24.971Z,24.37
2017-09-26T05:45:53.032Z,27.00
2017-09-26T05:48:21.108Z,25.77
2017-09-26T05:50:49.179Z,27.07
2017-09-26T05:53:17.263Z,30.17
2017-09-26T05:55:45.343Z,42.03
2017-09-26T05:58:13.396Z,28.10
2017-09-26T06:00:41.486Z,28.27
2017-09-26T06:03:10.318Z,28.10
2017-09-26T06:05:38.396Z,30.93
2017-09-26T06:08:06.454Z,29.70
2017-09-26T06:10:34.532Z,28.17
2017-09-26T06:13:02.608Z,46.50
2017-09-26T06:15:30.697Z,28.10
2017-09-26T06:17:58.772Z,27.77
2017-09-26T06:20:26.839Z,33.27
2017-09-26T06:22:55.012Z,30.50
2017-09-26T06:25:23.083Z,30.50
2017-09-26T06:27:51.155Z,29.00
2017-09-26T06:30:19.222Z,28.13
2017-09-26T06:32:47.315Z,28.10
2017-09-26T06:35:15.370Z,23.40
2017-09-26T06:37:43.436Z,23.40
2017-09-26T06:40:11.506Z,28.77
2017-09-26T06:42:39.566Z,23.13
2017-09-26T06:45:07.631Z,25.27
2017-09-26T06:47:35.703Z,24.00
2017-09-26T06:50:03.767Z,28.03
2017-09-26T06:52:31.838Z,31.50
2017-09-26T06:54:59.932Z,22.80
2017-09-26T06:57:27.987Z,26.50
2017-09-26T06:59:56.068Z,24.10
2017-09-26T07:02:24.157Z,25.33
2017-09-26T07:04:52.220Z,26.10
2017-09-26T07:07:20.302Z,25.93
2017-09-26T07:09:48.405Z,23.63
2017-09-26T07:12:16.718Z,22.80
2017-09-26T07:14:44.790Z,23.13
2017-09-26T07:17:12.867Z,23.80
2017-09-26T07:19:40.968Z,22.80
2017-09-26T07:22:09.030Z,24.27
2017-09-26T07:24:37.093Z,22.80
2017-09-26T07:27:05.160Z,26.40
2017-09-26T07:29:33.227Z,22.43
2017-09-26T07:32:01.302Z,21.40
2017-09-26T07:34:29.378Z,29.37
2017-09-26T07:36:57.468Z,24.33
2017-09-26T07:39:25.548Z,22.53
2017-09-26T07:41:53.610Z,22.70
2017-09-26T07:44:21.674Z,24.33
2017-09-26T07:46:49.776Z,21.87
2017-09-26T07:49:17.842Z,28.17
2017-09-26T07:51:45.906Z,27.43
2017-09-26T07:54:14.078Z,22.40
2017-09-26T07:56:42.302Z,23.47
2017-09-26T07:59:10.375Z,23.60
2017-09-26T08:01:38.471Z,21.83
2017-09-26T08:04:07.092Z,22.60
2017-09-26T08:06:36.725Z,24.53
2017-09-26T08:09:05.678Z,19.97
2017-09-26T08:11:33.743Z,21.17
2017-09-26T08:14:01.830Z,20.23
2017-09-26T08:16:30.668Z,19.97
2017-09-26T08:18:58.739Z,21.53
2017-09-26T08:21:26.807Z,20.60
2017-09-26T08:23:54.946Z,23.97
2017-09-26T08:26:23.842Z,20.83
2017-09-26T08:28:52.708Z,20.57
2017-09-26T08:31:20.839Z,22.23
2017-09-26T08:33:48.942Z,20.00
2017-09-26T08:36:17.111Z,21.10
2017-09-26T08:38:45.295Z,20.73
2017-09-26T08:41:13.372Z,22.67
2017-09-26T08:43:41.488Z,20.40
2017-09-26T08:46:09.901Z,23.13
2017-09-26T08:48:38.223Z,22.97
2017-09-26T08:51:07.063Z,26.40
2017-09-26T08:53:35.171Z,22.00
2017-09-26T08:56:04.176Z,20.70
2017-09-26T08:58:33.028Z,19.87
2017-09-26T09:01:01.219Z,39.33
2017-09-26T09:03:29.578Z,19.87
2017-09-26T09:05:57.608Z,21.50
2017-09-26T09:08:25.711Z,21.80
2017-09-26T09:10:53.772Z,21.17
2017-09-26T09:13:21.860Z,21.33
2017-09-26T09:15:49.969Z,22.93
2017-09-26T09:18:18.811Z,22.50
2017-09-26T09:20:46.900Z,22.67
2017-09-26T09:23:17.279Z,36.50
2017-09-26T09:25:45.352Z,28.67
2017-09-26T09:28:13.550Z,32.13
2017-09-26T09:30:44.199Z,31.03
2017-09-26T09:33:12.471Z,27.57
2017-09-26T09:35:47.146Z,19.57
2017-09-26T09:38:19.095Z,26.10
2017-09-26T09:40:49.192Z,21.40
2017-09-26T09:43:20.414Z,20.90
2017-09-26T09:45:48.503Z,21.83
2017-09-26T09:48:16.579Z,19.77
2017-09-26T09:50:44.659Z,19.33
2017-09-26T09:53:12.744Z,22.20
2017-09-26T09:55:40.817Z,27.20
2017-09-26T09:58:08.955Z,23.83
2017-09-26T10:00:37.519Z,19.67
2017-09-26T10:03:06.322Z,20.83
2017-09-26T10:05:35.156Z,20.53
2017-09-26T10:08:03.251Z,18.47
2017-09-26T10:10:31.509Z,18.93
2017-09-26T10:12:59.648Z,18.60
2017-09-26T10:15:27.875Z,17.90
2017-09-26T10:17:55.956Z,18.60
2017-09-26T10:20:24.444Z,19.40
2017-09-26T10:22:52.507Z,19.37
2017-09-26T10:25:20.613Z,20.53
2017-09-26T10:27:49.436Z,19.37
2017-09-26T10:30:17.500Z,19.60
2017-09-26T10:32:45.587Z,19.03
2017-09-26T10:35:13.671Z,20.50
2017-09-26T10:37:41.811Z,19.23
2017-09-26T10:40:09.931Z,21.63
2017-09-26T10:42:38.821Z,19.67
2017-09-26T10:45:07.753Z,19.70
2017-09-26T10:47:36.656Z,19.37
2017-09-26T10:50:04.763Z,20.73
2017-09-26T10:52:32.839Z,23.17
2017-09-26T10:55:00.911Z,21.50
2017-09-26T10:57:28.967Z,23.27
2017-09-26T10:59:57.050Z,23.50
2017-09-26T11:02:26.028Z,24.30
2017-09-26T11:04:54.107Z,23.60
2017-09-26T11:07:22.235Z,24.53
2017-09-26T11:09:51.822Z,23.60
2017-09-26T11:12:19.888Z,24.30
2017-09-26T11:14:47.983Z,25.30
2017-09-26T11:17:16.050Z,25.17
2017-09-26T11:19:44.124Z,24.63
2017-09-26T11:22:12.217Z,23.70
2017-09-26T11:24:40.267Z,23.30
2017-09-26T11:27:08.355Z,23.20
2017-09-26T11:29:37.174Z,22.47
2017-09-26T11:32:05.246Z,22.60
2017-09-26T11:34:33.354Z,23.83
2017-09-26T11:37:01.430Z,23.27
2017-09-26T11:39:29.510Z,22.33
2017-09-26T11:41:57.577Z,24.50
2017-09-26T11:44:25.649Z,22.07
2017-09-26T11:46:53.724Z,20.20
2017-09-26T11:49:21.795Z,21.67
2017-09-26T11:51:49.864Z,22.20
2017-09-26T11:54:17.947Z,20.30
2017-09-26T11:56:46.049Z,20.13
2017-09-26T11:59:14.886Z,21.23
2017-09-26T12:01:42.951Z,22.20
2017-09-26T12:04:11.015Z,22.47
2017-09-26T12:06:39.881Z,25.70
2017-09-26T12:09:08.750Z,21.80
2017-09-26T12:11:36.859Z,21.10
2017-09-26T12:14:06.632Z,20.67
2017-09-26T12:16:34.699Z,24.80
2017-09-26T12:19:02.784Z,26.30
2017-09-26T12:21:31.007Z,25.63
2017-09-26T12:24:00.647Z,23.70
2017-09-26T12:26:28.738Z,26.20
2017-09-26T12:28:56.827Z,23.50
2017-09-26T12:31:24.896Z,20.97
2017-09-26T12:33:53.762Z,26.80
2017-09-26T12:36:21.836Z,22.80
2017-09-26T12:38:49.893Z,20.43
2017-09-26T12:41:17.983Z,22.07
2017-09-26T12:43:46.056Z,22.87
2017-09-26T12:46:14.355Z,20.80
2017-09-26T12:48:42.384Z,22.13
2017-09-26T12:51:10.467Z,21.13
2017-09-26T12:53:38.543Z,22.17
2017-09-26T12:56:06.620Z,21.40
2017-09-26T12:58:35.454Z,21.93
2017-09-26T13:01:03.556Z,20.40
2017-09-26T13:03:31.660Z,22.83
2017-09-26T13:06:01.251Z,22.03
2017-09-26T13:08:29.345Z,21.73
2017-09-26T13:10:58.192Z,21.90
2017-09-26T13:13:26.271Z,21.07
2017-09-26T13:15:54.343Z,21.40
2017-09-26T13:18:22.415Z,20.87
2017-09-26T13:20:50.514Z,23.10
2017-09-26T13:23:19.334Z,20.20
2017-09-26T13:25:47.411Z,21.47
2017-09-26T13:28:15.471Z,20.87
2017-09-26T13:30:43.554Z,22.73
2017-09-26T13:33:11.615Z,22.37
2017-09-26T13:35:39.687Z,22.30
2017-09-26T13:38:07.766Z,21.57
2017-09-26T13:40:35.886Z,21.27
2017-09-26T13:43:04.742Z,21.80
2017-09-26T13:45:32.816Z,20.10
2017-09-26T13:48:00.907Z,19.53
2017-09-26T13:50:28.987Z,19.40
2017-09-26T13:52:57.047Z,21.67
2017-09-26T13:55:25.120Z,20.40
2017-09-26T13:57:53.350Z,20.53
2017-09-26T14:00:22.158Z,17.83
2017-09-26T14:02:50.235Z,20.60
2017-09-26T14:05:18.298Z,19.97
2017-09-26T14:07:46.395Z,21.07
2017-09-26T14:10:14.469Z,21.03
2017-09-26T14:12:42.535Z,21.73
2017-09-26T14:15:10.626Z,22.30
2017-09-26T14:17:38.698Z,22.10
2017-09-26T14:20:06.763Z,22.30
2017-09-26T14:22:34.842Z,22.87
2017-09-26T14:25:02.916Z,19.53
2017-09-26T14:27:30.994Z,19.67
2017-09-26T14:29:59.064Z,19.87
2017-09-26T14:32:27.932Z,19.20
2017-09-26T14:34:56.675Z,17.70
2017-09-26T14:37:25.532Z,17.67
2017-09-26T14:39:53.604Z,20.40
2017-09-26T14:42:21.708Z,18.20
2017-09-26T14:44:50.578Z,18.97
2017-09-26T14:47:18.880Z,16.70
2017-09-26T14:49:48.094Z,19.27
2017-09-26T14:52:16.970Z,19.03
2017-09-26T14:54:45.101Z,22.07
2017-09-26T14:57:13.195Z,24.90
2017-09-26T14:59:42.636Z,21.83
2017-09-26T15:02:10.791Z,21.63
2017-09-26T15:04:38.868Z,21.10
2017-09-26T15:07:06.977Z,22.17
2017-09-26T15:09:35.052Z,25.80
2017-09-26T15:12:03.885Z,22.57
2017-09-26T15:14:32.016Z,22.00
2017-09-26T15:17:00.977Z,21.33
2017-09-26T15:19:29.036Z,24.07
2017-09-26T15:21:57.751Z,22.47
2017-09-26T15:24:25.854Z,20.97
2017-09-26T15:26:54.690Z,21.60
2017-09-26T15:29:22.762Z,23.33
2017-09-26T15:31:50.838Z,23.37
2017-09-26T15:34:19.622Z,24.50
2017-09-26T15:36:47.690Z,23.00
2017-09-26T15:39:15.776Z,23.03
2017-09-26T15:41:43.838Z,24.10
2017-09-26T15:44:11.923Z,23.47
2017-09-26T15:46:39.990Z,25.17
2017-09-26T15:49:08.047Z,22.43
2017-09-26T15:51:36.149Z,25.10
2017-09-26T15:54:04.216Z,23.73
2017-09-26T15:56:33.086Z,26.40
2017-09-26T15:59:01.194Z,25.47
2017-09-26T16:01:30.039Z,29.20
2017-09-26T16:03:58.139Z,24.63
2017-09-26T16:06:27.003Z,26.50
2017-09-26T16:08:56.761Z,24.47
2017-09-26T16:11:24.853Z,26.13
2017-09-26T16:13:53.782Z,23.40
2017-09-26T16:16:21.880Z,11.00
2017-09-26T16:18:50.071Z,9.00
2017-09-26T16:21:18.144Z,9.40
2017-09-26T16:23:46.207Z,8.13
2017-09-26T16:26:14.289Z,6.80
2017-09-26T16:28:42.363Z,8.87
2017-09-26T16:31:11.207Z,8.50
2017-09-26T16:33:39.322Z,8.80
2017-09-26T16:36:07.934Z,9.90
2017-09-26T16:38:36.789Z,10.87
2017-09-26T16:41:04.913Z,13.93
2017-09-26T16:43:33.833Z,8.03
2017-09-26T16:46:01.904Z,9.13
2017-09-26T16:48:29.959Z,9.60
2017-09-26T16:50:58.028Z,9.30
2017-09-26T16:53:26.096Z,10.80
2017-09-26T16:55:54.164Z,6.90
2017-09-26T16:58:22.230Z,6.80
2017-09-26T17:00:50.303Z,5.53
2017-09-26T17:03:18.399Z,5.03
2017-09-26T17:05:46.453Z,6.73
2017-09-26T17:08:14.531Z,6.50
2017-09-26T17:10:42.610Z,8.43
2017-09-26T17:13:10.673Z,8.57
2017-09-26T17:15:38.795Z,7.07
2017-09-26T17:18:06.963Z,9.87
2017-09-26T17:20:35.022Z,9.27
2017-09-26T17:23:03.087Z,16.73
2017-09-26T17:25:31.153Z,6.40
2017-09-26T17:27:59.225Z,7.03
2017-09-26T17:30:27.319Z,9.13
2017-09-26T17:32:55.380Z,7.30
2017-09-26T17:35:23.452Z,7.87
2017-09-26T17:37:51.529Z,73.27
2017-09-26T17:40:19.594Z,7.43
2017-09-26T17:42:47.663Z,8.10
2017-09-26T17:45:15.717Z,8.43
2017-09-26T17:47:43.795Z,7.23
2017-09-26T17:50:11.845Z,10.97
2017-09-26T17:52:39.917Z,8.80
2017-09-26T17:55:07.996Z,9.97
2017-09-26T17:57:36.059Z,10.60
2017-09-26T18:00:04.159Z,22.13
2017-09-26T18:02:32.251Z,14.70
2017-09-26T18:05:00.321Z,11.40
2017-09-26T18:07:29.174Z,10.40
2017-09-26T18:09:57.278Z,13.70
2017-09-26T18:12:25.361Z,10.40
2017-09-26T18:14:53.431Z,11.50
2017-09-26T18:17:21.576Z,12.27
2017-09-26T18:19:49.674Z,10.60
2017-09-26T18:22:17.734Z,9.43
2017-09-26T18:24:45.807Z,10.13
2017-09-26T18:27:13.916Z,11.60
2017-09-26T18:29:42.760Z,10.60
2017-09-26T18:32:10.840Z,10.00
2017-09-26T18:34:38.934Z,11.97
2017-09-26T18:37:07.031Z,9.90
2017-09-26T18:39:35.866Z,13.80
2017-09-26T18:42:03.968Z,9.83
2017-09-26T18:44:32.054Z,11.27
2017-09-26T18:47:00.912Z,12.20
2017-09-26T18:49:28.976Z,13.47
2017-09-26T18:51:57.052Z,10.23
2017-09-26T18:54:25.119Z,12.97
2017-09-26T18:56:53.192Z,11.80
2017-09-26T18:59:21.303Z,10.03
2017-09-26T19:01:49.340Z,15.13
2017-09-26T19:04:17.441Z,11.37
2017-09-26T19:06:46.285Z,11.20
2017-09-26T19:09:14.374Z,11.50
2017-09-26T19:11:43.198Z,12.80
2017-09-26T19:14:11.275Z,15.03
2017-09-26T19:16:39.350Z,12.43
2017-09-26T19:19:07.420Z,12.97
2017-09-26T19:21:35.512Z,15.30
2017-09-26T19:24:03.586Z,12.67
2017-09-26T19:26:31.691Z,11.40
2017-09-26T19:29:00.556Z,12.17
2017-09-26T19:31:28.610Z,12.30
2017-09-26T19:33:56.679Z,13.53
2017-09-26T19:36:24.771Z,13.63
2017-09-26T19:38:52.854Z,12.70
2017-09-26T19:41:20.907Z,14.03
2017-09-26T19:43:49.003Z,16.60
2017-09-26T19:46:17.087Z,16.13
2017-09-26T19:48:45.919Z,14.77
2017-09-26T19:51:14.003Z,14.47
2017-09-26T19:53:42.061Z,14.67
2017-09-26T19:56:10.150Z,18.87
2017-09-26T19:58:38.236Z,15.83
2017-09-26T20:01:06.289Z,16.60
2017-09-26T20:03:34.400Z,18.63
2017-09-26T20:06:03.246Z,18.20
2017-09-26T20:08:31.470Z,21.00
2017-09-26T20:10:59.577Z,13.90
2017-09-26T20:13:27.656Z,15.13
2017-09-26T20:15:55.720Z,14.17
2017-09-26T20:18:23.805Z,13.60
2017-09-26T20:20:52.643Z,14.97
2017-09-26T20:23:21.513Z,17.70
2017-09-26T20:25:49.570Z,17.27
2017-09-26T20:28:17.677Z,13.20
2017-09-26T20:30:45.744Z,16.20
2017-09-26T20:33:13.851Z,15.63
2017-09-26T20:35:41.956Z,15.20
2017-09-26T20:38:10.055Z,15.57
2017-09-26T20:40:38.956Z,20.00
2017-09-26T20:43:07.015Z,19.60
2017-09-26T20:45:35.093Z,16.77
2017-09-26T20:48:03.172Z,16.43
2017-09-26T20:50:32.753Z,22.83
2017-09-26T20:53:00.822Z,22.87
2017-09-26T20:55:29.525Z,19.77
2017-09-26T20:57:57.608Z,17.90
2017-09-26T21:00:25.675Z,19.47
2017-09-26T21:02:54.515Z,17.03
2017-09-26T21:05:22.597Z,17.27
2017-09-26T21:07:50.734Z,18.57
2017-09-26T21:10:19.571Z,18.70
2017-09-26T21:12:48.434Z,22.70
2017-09-26T21:15:16.495Z,19.07
2017-09-26T21:17:44.582Z,18.10
2017-09-26T21:20:12.650Z,19.00
2017-09-26T21:22:40.719Z,19.60
2017-09-26T21:25:09.579Z,19.47
2017-09-26T21:27:37.665Z,23.00
2017-09-26T21:30:05.743Z,20.53
2017-09-26T21:32:33.821Z,22.00
2017-09-26T21:35:01.887Z,18.43
2017-09-26T21:37:29.970Z,18.27
2017-09-26T21:39:58.042Z,19.27
2017-09-26T21:42:26.882Z,21.50
2017-09-26T21:44:54.962Z,19.50
2017-09-26T21:47:23.048Z,18.90
2017-09-26T21:49:51.123Z,19.40
2017-09-26T21:52:19.192Z,23.33
2017-09-26T21:54:47.275Z,22.63
2017-09-26T21:57:15.342Z,22.70
2017-09-26T21:59:43.428Z,22.37
2017-09-26T22:02:11.508Z,21.00
2017-09-26T22:04:39.558Z,20.73
2017-09-26T22:07:07.634Z,21.60
2017-09-26T22:09:35.694Z,23.67
2017-09-26T22:12:03.771Z,26.67
2017-09-26T22:14:32.611Z,20.43
2017-09-26T22:17:00.687Z,23.33
2017-09-26T22:19:28.769Z,20.43
2017-09-26T22:21:56.851Z,23.87
2017-09-26T22:24:24.923Z,22.73
2017-09-26T22:26:52.991Z,21.10
2017-09-26T22:29:21.092Z,20.67
2017-09-26T22:31:49.138Z,19.70
2017-09-26T22:34:17.229Z,21.87
2017-09-26T22:36:45.365Z,23.30
2017-09-26T22:39:13.427Z,22.80
2017-09-26T22:41:41.515Z,18.83
2017-09-26T22:44:09.576Z,22.10
2017-09-26T22:46:37.651Z,20.73
2017-09-26T22:49:05.714Z,20.10
2017-09-26T22:51:33.788Z,20.10
2017-09-26T22:54:01.876Z,21.53
2017-09-26T22:56:29.946Z,22.40
2017-09-26T22:58:58.018Z,20.97
2017-09-26T23:01:26.090Z,27.47
2017-09-26T23:03:54.142Z,21.00
2017-09-26T23:06:22.214Z,22.90
2017-09-26T23:08:50.279Z,20.83
2017-09-26T23:11:18.359Z,22.97
2017-09-26T23:13:46.436Z,23.30
2017-09-26T23:16:14.521Z,18.57
2017-09-26T23:18:44.095Z,18.50
2017-09-26T23:21:12.201Z,19.97
2017-09-26T23:23:41.879Z,25.40
2017-09-26T23:26:09.946Z,20.73
2017-09-26T23:28:38.026Z,25.10
2017-09-26T23:31:06.127Z,23.93
2017-09-26T23:33:34.189Z,24.10
2017-09-26T23:36:03.765Z,21.50
2017-09-26T23:38:31.939Z,20.93
2017-09-26T23:41:00.010Z,22.73
2017-09-26T23:43:28.069Z,20.13
2017-09-26T23:45:56.183Z,22.27
2017-09-26T23:48:24.260Z,22.50
2017-09-26T23:50:52.332Z,21.20
2017-09-26T23:53:20.394Z,18.93
2017-09-26T23:55:48.462Z,24.00
2017-09-26T23:58:16.541Z,20.37
